Terminal Aerodrome Forecast
Issued by NWS Blacksburg, VA

Home | Current Version | Previous Version | Text Only | Print | Product List | Glossary On
Versions: 1 2 3 4 5 6 7 8 9 10 11 12 13 14 15 16 17 18 19
000
FTUS41 KRNK 261128
TAFDAN
TAF
KDAN 261128Z 2612/2712 30006KT P6SM SCT250
     FM261700 20007KT P6SM OVC050
     FM270200 VRB02KT P6SM VCSH OVC045
     FM270400 07007KT 3SM -RA SCT015 OVC035
     FM270900 08008KT P6SM OVC010=

USA.gov is the U.S. government's official web portal to all federal, state and local government web resources and services.